Time;durP1;ratioP1;P1;durP2;ratioP2;P2;SDS_P1;SDS_P2;PMS_P1;PMS_P2;Temp;Humidity;BMP_temperature;BMP_pressure;BME280_temperature;BME280_humidity;BME280_pressure;Samples;Min_cycle;Max_cycle;Signal;HPM_P1;HPM_P2
2021/08/16 00:01:04;;;;;;;;;6.00;5.33;;;;;27.07;51.05;97881.03;4885092;28;103118;-83
2021/08/16 00:03:32;;;;;;;;;8.00;8.00;;;;;27.06;50.82;97884.16;4898137;28;104428;-83
2021/08/16 00:05:59;;;;;;;;;6.00;6.00;;;;;27.05;51.48;97880.56;4902621;28;103198;-83
2021/08/16 00:08:26;;;;;;;;;7.00;6.33;;;;;27.04;50.61;97878.91;4904738;28;102612;-83
2021/08/16 00:10:54;;;;;;;;;6.33;6.00;;;;;27.04;51.21;97894.75;4916473;28;102466;-83
2021/08/16 00:13:24;;;;;;;;;10.00;9.00;;;;;27.02;51.26;97892.28;4915372;28;108190;-82
2021/08/16 00:15:52;;;;;;;;;6.00;6.00;;;;;27.02;50.65;97894.25;4906202;28;102628;-83
2021/08/16 00:18:20;;;;;;;;;6.33;6.33;;;;;27.01;51.10;97890.69;4888451;28;102314;-83
2021/08/16 00:20:47;;;;;;;;;8.00;7.33;;;;;27.00;51.44;97893.78;4915120;28;102640;-83
2021/08/16 00:23:15;;;;;;;;;6.33;6.33;;;;;26.97;51.14;97883.34;4916233;28;103271;-83
2021/08/16 00:25:43;;;;;;;;;7.67;6.33;;;;;26.99;50.90;97892.13;4921382;28;102601;-83
2021/08/16 00:28:10;;;;;;;;;7.00;6.00;;;;;26.97;51.09;97886.09;4907272;28;102144;-83
2021/08/16 00:30:37;;;;;;;;;6.00;6.00;;;;;26.97;51.05;97888.88;4899719;28;104508;-83
2021/08/16 00:33:08;;;;;;;;;6.33;5.67;;;;;26.96;50.84;97888.06;4933291;28;104211;-83
2021/08/16 00:35:35;;;;;;;;;7.00;6.67;;;;;26.83;50.80;97857.66;4906845;28;103610;-83
2021/08/16 00:38:02;;;;;;;;;7.00;6.33;;;;;26.90;50.91;97866.34;4914220;28;104221;-83
2021/08/16 00:40:29;;;;;;;;;7.67;6.00;;;;;26.94;51.13;97870.09;4918189;28;102509;-83
2021/08/16 00:42:57;;;;;;;;;7.00;7.00;;;;;26.93;50.85;97876.78;4882327;28;104127;-83
2021/08/16 00:45:27;;;;;;;;;6.67;6.00;;;;;26.91;50.89;97870.75;4925552;28;102324;-83
2021/08/16 00:47:57;;;;;;;;;7.00;7.00;;;;;26.90;50.97;97867.16;4922444;28;102150;-83
2021/08/16 00:50:24;;;;;;;;;9.33;8.67;;;;;26.88;51.07;97869.41;4914906;28;103169;-82
2021/08/16 00:52:51;;;;;;;;;9.33;8.00;;;;;26.88;50.35;97858.31;4910138;28;104039;-83
2021/08/16 00:55:19;;;;;;;;;7.00;6.67;;;;;26.88;50.68;97857.53;4902062;28;102503;-83
2021/08/16 00:57:48;;;;;;;;;8.00;7.33;;;;;26.86;50.80;97845.94;4912395;28;102662;-83
2021/08/16 01:00:16;;;;;;;;;6.67;6.67;;;;;26.86;50.87;97826.50;4916282;28;104174;-83
2021/08/16 01:02:43;;;;;;;;;6.00;6.00;;;;;26.82;51.11;97801.34;4914589;28;104675;-83
2021/08/16 01:05:12;;;;;;;;;6.33;5.67;;;;;26.84;50.80;97812.91;4899909;28;102396;-83
2021/08/16 01:07:41;;;;;;;;;7.00;6.67;;;;;26.85;50.79;97813.75;4883004;28;102579;-83
2021/08/16 01:10:10;;;;;;;;;7.33;6.00;;;;;26.84;51.02;97817.66;4895800;28;104304;-83
2021/08/16 01:12:38;;;;;;;;;7.00;7.00;;;;;26.82;50.61;97814.41;4914228;28;103209;-83
2021/08/16 01:15:06;;;;;;;;;6.00;5.33;;;;;26.82;51.10;97819.94;4918281;28;102360;-83
2021/08/16 01:17:35;;;;;;;;;9.00;7.33;;;;;26.81;50.75;97818.31;4918889;28;103493;-83
2021/08/16 01:20:08;;;;;;;;;6.67;6.00;;;;;26.78;50.69;97827.28;4890716;28;102523;-83
2021/08/16 01:22:37;;;;;;;;;7.33;7.00;;;;;26.78;50.48;97830.06;4895965;28;103623;-83
2021/08/16 01:25:07;;;;;;;;;10.33;6.33;;;;;26.70;50.75;97891.91;4892502;28;103580;-83
2021/08/16 01:27:35;;;;;;;;;7.33;6.33;;;;;26.77;50.47;97944.94;4884874;28;102451;-83
2021/08/16 01:30:05;;;;;;;;;8.00;8.00;;;;;26.77;50.74;97954.06;4887640;28;102199;-83
2021/08/16 01:32:32;;;;;;;;;8.00;7.00;;;;;26.63;50.87;97926.47;4884684;28;103103;-83
2021/08/16 01:35:00;;;;;;;;;8.33;7.33;;;;;26.74;50.52;97945.59;4885777;28;103532;-83
2021/08/16 01:37:28;;;;;;;;;7.00;6.33;;;;;26.76;50.91;97948.84;4886871;28;102465;-83
2021/08/16 01:39:57;;;;;;;;;4.00;4.00;;;;;26.75;50.86;97931.38;4881613;28;102746;-83
2021/08/16 01:42:24;;;;;;;;;7.00;6.00;;;;;26.75;51.00;97939.69;4895115;28;104067;-83
2021/08/16 01:44:51;;;;;;;;;6.00;6.00;;;;;26.75;51.27;97939.69;4894029;28;102335;-83
2021/08/16 01:47:18;;;;;;;;;7.33;7.33;;;;;26.73;51.00;97942.00;4877063;28;102449;-83
2021/08/16 01:49:47;;;;;;;;;7.00;6.67;;;;;26.73;51.23;97938.41;4893124;28;102659;-83
2021/08/16 01:52:14;;;;;;;;;7.00;6.67;;;;;26.73;51.13;97921.75;4887807;28;104059;-83
2021/08/16 01:54:41;;;;;;;;;6.67;6.33;;;;;26.73;51.13;97918.97;4888681;28;102484;-82
2021/08/16 01:57:08;;;;;;;;;6.67;6.67;;;;;26.72;51.05;97906.25;4889425;28;102506;-83
2021/08/16 01:59:35;;;;;;;;;5.67;5.33;;;;;26.71;51.06;97891.56;4887459;28;102618;-83
2021/08/16 02:02:07;;;;;;;;;7.00;6.33;;;;;26.71;51.09;97882.41;4895887;28;104362;-83
2021/08/16 02:04:36;;;;;;;;;6.67;6.67;;;;;26.70;51.22;97880.81;4887349;28;102252;-83
2021/08/16 02:07:03;;;;;;;;;6.00;6.00;;;;;26.69;51.21;97882.75;4898095;28;104029;-83
2021/08/16 02:09:33;;;;;;;;;6.00;6.00;;;;;26.69;51.12;97870.84;4900617;28;102253;-83
2021/08/16 02:12:00;;;;;;;;;6.33;5.33;;;;;26.68;51.29;97870.03;4892786;28;108598;-83
2021/08/16 02:14:32;;;;;;;;;5.67;5.67;;;;;26.67;50.90;97851.75;4891473;28;104058;-82
2021/08/16 02:16:59;;;;;;;;;6.33;6.33;;;;;26.67;51.26;97850.91;4894274;28;103015;-82
2021/08/16 02:19:26;;;;;;;;;7.00;7.00;;;;;26.67;51.05;97848.16;4901744;28;104410;-82
2021/08/16 02:21:54;;;;;;;;;8.00;5.33;;;;;26.66;51.14;97843.75;4889839;28;104261;-83
2021/08/16 02:24:21;;;;;;;;;7.00;7.00;;;;;26.64;51.09;97842.13;4891120;28;102309;-83
2021/08/16 02:26:48;;;;;;;;;5.33;5.33;;;;;26.62;51.05;97833.31;4899991;28;102643;-83
2021/08/16 02:29:16;;;;;;;;;8.33;7.00;;;;;26.63;51.17;97832.16;4886255;28;102965;-83
2021/08/16 02:31:43;;;;;;;;;6.00;6.00;;;;;26.63;51.12;97820.25;4891675;28;104182;-83
2021/08/16 02:34:11;;;;;;;;;5.33;5.00;;;;;26.49;51.10;97795.44;4888729;28;102538;-83
2021/08/16 02:36:38;;;;;;;;;6.33;5.33;;;;;26.48;50.97;97795.75;4881707;28;102442;-83
2021/08/16 02:39:05;;;;;;;;;6.00;6.00;;;;;26.61;50.93;97811.47;4880499;28;102519;-83
2021/08/16 02:41:33;;;;;;;;;5.00;5.00;;;;;26.60;50.88;97807.03;4895916;28;104184;-83
2021/08/16 02:44:00;;;;;;;;;4.33;4.00;;;;;26.59;51.16;97799.84;4888207;28;104477;-83
2021/08/16 02:46:27;;;;;;;;;5.00;5.00;;;;;26.59;50.98;97792.34;4896536;28;103581;-83
2021/08/16 02:48:54;;;;;;;;;6.00;6.00;;;;;26.59;50.99;97809.00;4897170;28;102980;-83
2021/08/16 02:51:22;;;;;;;;;7.33;6.33;;;;;26.59;51.15;97800.69;4871648;28;104476;-83
2021/08/16 02:53:49;;;;;;;;;5.00;4.00;;;;;26.57;51.27;97802.94;4892496;28;102706;-83
2021/08/16 02:56:16;;;;;;;;;7.00;6.00;;;;;26.57;51.23;97802.94;4885372;28;102168;-83
2021/08/16 02:58:43;;;;;;;;;4.00;4.00;;;;;26.57;51.23;97791.03;4889375;28;102645;-83
2021/08/16 03:01:10;;;;;;;;;5.67;5.00;;;;;26.56;51.22;97783.88;4898981;28;104065;-83
2021/08/16 03:03:37;;;;;;;;;3.50;3.50;;;;;26.55;50.93;97774.75;4881880;28;102454;-83
2021/08/16 03:06:04;;;;;;;;;6.00;6.00;;;;;26.55;51.34;97771.97;4882200;28;102454;-83
2021/08/16 03:08:33;;;;;;;;;5.00;5.00;;;;;26.55;51.05;97758.09;4889338;28;102567;-83
2021/08/16 03:11:01;;;;;;;;;5.33;5.33;;;;;26.55;51.32;97758.09;4890136;28;109002;-83
2021/08/16 03:13:28;;;;;;;;;5.67;4.67;;;;;26.55;51.22;97744.25;4895048;28;103773;-83
2021/08/16 03:15:56;;;;;;;;;5.33;5.33;;;;;26.55;51.21;97744.25;4892744;28;102400;-83
2021/08/16 03:18:23;;;;;;;;;4.67;4.67;;;;;26.53;51.26;97740.97;4888634;28;104354;-83
2021/08/16 03:20:52;;;;;;;;;6.00;5.00;;;;;26.53;51.10;97738.19;4893643;28;104107;-83
2021/08/16 03:23:20;;;;;;;;;6.00;5.33;;;;;26.53;51.28;97735.41;4896294;28;102540;-83
2021/08/16 03:25:47;;;;;;;;;5.33;5.33;;;;;26.50;51.23;97735.25;4895906;28;102542;-83
2021/08/16 03:28:14;;;;;;;;;6.00;5.67;;;;;26.52;51.41;97728.22;4900308;28;102649;-82
2021/08/16 03:30:45;;;;;;;;;4.00;4.00;;;;;26.45;51.23;97713.22;4897614;28;104082;-83
2021/08/16 03:33:12;;;;;;;;;5.00;5.00;;;;;26.50;51.58;97724.97;4900563;28;102516;-83
2021/08/16 03:35:39;;;;;;;;;5.00;4.00;;;;;26.49;51.61;97728.88;4894018;28;103766;-83
2021/08/16 03:38:06;;;;;;;;;4.00;4.00;;;;;26.50;51.38;97735.25;4881703;28;102151;-83
2021/08/16 03:40:33;;;;;;;;;4.33;4.33;;;;;26.50;51.46;97743.56;4891143;28;104284;-83
2021/08/16 03:43:00;;;;;;;;;7.33;7.00;;;;;26.48;51.70;97737.53;4902534;28;102537;-83
2021/08/16 03:45:27;;;;;;;;;4.00;4.00;;;;;26.48;51.42;97732.81;4884980;28;103247;-83
2021/08/16 03:47:54;;;;;;;;;6.00;5.67;;;;;26.48;51.45;97743.06;4898626;28;102614;-83
2021/08/16 03:50:22;;;;;;;;;7.00;6.33;;;;;26.47;51.41;97742.28;4900223;28;105202;-83
2021/08/16 03:52:49;;;;;;;;;5.33;5.00;;;;;26.47;51.41;97747.81;4895213;28;103523;-83
2021/08/16 03:55:16;;;;;;;;;6.00;5.00;;;;;26.46;51.31;97751.72;4895335;28;102561;-82
2021/08/16 03:57:43;;;;;;;;;4.33;4.00;;;;;26.45;51.50;97739.00;4907201;28;102889;-83
2021/08/16 04:00:11;;;;;;;;;5.00;5.00;;;;;26.46;51.23;97745.38;4897881;28;104247;-83
2021/08/16 04:02:41;;;;;;;;;4.33;4.00;;;;;26.46;51.16;97746.19;4899096;28;102761;-82
2021/08/16 04:05:09;;;;;;;;;5.00;5.00;;;;;26.44;51.23;97748.47;4890786;28;103450;-82
2021/08/16 04:07:36;;;;;;;;;6.00;5.00;;;;;26.45;51.26;97750.09;4895821;28;102248;-82
2021/08/16 04:10:09;;;;;;;;;5.00;4.67;;;;;26.43;51.43;97746.81;4890429;28;104160;-82
2021/08/16 04:12:36;;;;;;;;;4.33;4.33;;;;;26.43;51.43;97757.13;4900493;28;102771;-82
2021/08/16 04:15:08;;;;;;;;;5.00;4.67;;;;;26.43;51.25;97769.00;4898467;28;102623;-82
2021/08/16 04:17:35;;;;;;;;;4.33;4.33;;;;;26.42;51.39;97786.78;4899570;28;102709;-82
2021/08/16 04:20:03;;;;;;;;;6.67;5.67;;;;;26.42;51.15;97805.38;4912222;28;104087;-82
2021/08/16 04:22:31;;;;;;;;;6.00;6.00;;;;;26.42;51.21;97816.47;4899279;28;102501;-82
2021/08/16 04:24:59;;;;;;;;;5.00;5.00;;;;;26.41;51.45;97807.34;4900065;28;102544;-82
2021/08/16 04:27:26;;;;;;;;;6.33;6.00;;;;;26.41;51.09;97796.25;4916947;28;102671;-82
2021/08/16 04:29:58;;;;;;;;;6.33;5.00;;;;;26.40;51.13;97802.94;4913724;28;104128;-82
2021/08/16 04:32:26;;;;;;;;;4.00;4.00;;;;;26.41;51.03;97800.97;4914777;28;102588;-82
2021/08/16 04:34:53;;;;;;;;;4.67;4.67;;;;;26.38;51.27;97799.69;4906226;28;102519;-83
2021/08/16 04:37:21;;;;;;;;;6.67;6.00;;;;;26.40;51.20;97799.34;4907512;28;102587;-83
2021/08/16 04:39:48;;;;;;;;;2.33;2.33;;;;;26.39;51.13;97801.28;4902816;28;104075;-83
2021/08/16 04:42:15;;;;;;;;;5.33;5.00;;;;;26.39;51.15;97795.75;4905617;28;102190;-83
2021/08/16 04:44:43;;;;;;;;;8.00;6.00;;;;;26.37;51.15;97800.81;4907038;28;102613;-83
2021/08/16 04:47:10;;;;;;;;;5.00;5.00;;;;;26.29;51.15;97782.22;4918361;28;102354;-83
2021/08/16 04:49:39;;;;;;;;;4.67;3.67;;;;;26.37;51.22;97803.56;4907699;28;103574;-83
2021/08/16 04:52:06;;;;;;;;;4.00;4.00;;;;;26.37;51.10;97803.56;4908077;28;102304;-83
2021/08/16 04:54:36;;;;;;;;;6.67;5.67;;;;;26.37;51.13;97802.75;4912096;28;104407;-83
2021/08/16 04:57:06;;;;;;;;;4.00;4.00;;;;;26.36;51.26;97806.66;4895891;28;102579;-83
2021/08/16 04:59:33;;;;;;;;;6.33;6.00;;;;;26.35;51.06;97800.31;4923189;28;104473;-83
2021/08/16 05:02:00;;;;;;;;;4.33;4.33;;;;;26.34;51.31;97803.41;4917002;28;102537;-83
2021/08/16 05:04:28;;;;;;;;;5.33;3.33;;;;;26.36;51.10;97806.66;4894117;28;102899;-83
2021/08/16 05:06:58;;;;;;;;;8.33;7.33;;;;;26.35;51.23;97805.03;4910147;28;102729;-83
2021/08/16 05:09:25;;;;;;;;;6.00;6.00;;;;;26.35;51.23;97808.63;4898058;28;104090;-83
2021/08/16 05:11:52;;;;;;;;;6.33;6.00;;;;;26.35;51.21;97805.84;4901362;28;102826;-83
2021/08/16 05:14:19;;;;;;;;;5.33;5.33;;;;;26.34;51.26;97809.78;4910827;28;102456;-83
2021/08/16 05:16:46;;;;;;;;;5.33;5.00;;;;;26.33;51.18;97797.06;4903638;28;102836;-82
2021/08/16 05:19:13;;;;;;;;;5.33;5.00;;;;;26.35;51.22;97805.03;4884456;28;104122;-83
2021/08/16 05:21:42;;;;;;;;;5.67;4.67;;;;;26.35;51.00;97811.38;4909230;28;102576;-83
2021/08/16 05:24:09;;;;;;;;;4.33;4.33;;;;;26.34;51.11;97804.22;4889904;28;103041;-83
2021/08/16 05:26:36;;;;;;;;;6.33;6.33;;;;;26.34;51.08;97809.78;4914303;28;112580;-83
2021/08/16 05:29:03;;;;;;;;;4.00;4.00;;;;;26.33;51.15;97812.88;4901341;28;108879;-83
2021/08/16 05:31:30;;;;;;;;;4.67;4.00;;;;;26.33;50.91;97813.69;4897360;28;102615;-83
2021/08/16 05:33:57;;;;;;;;;7.00;6.00;;;;;26.33;51.04;97813.69;4914263;28;102438;-83
2021/08/16 05:36:25;;;;;;;;;4.67;4.67;;;;;26.33;51.12;97816.47;4906931;28;102499;-83
2021/08/16 05:38:52;;;;;;;;;6.00;5.00;;;;;26.34;51.09;97808.97;4900673;28;105792;-83
2021/08/16 05:41:19;;;;;;;;;5.00;5.00;;;;;26.34;51.12;97808.97;4901800;28;102216;-83
2021/08/16 05:43:46;;;;;;;;;4.67;4.33;;;;;26.33;51.07;97808.13;4905577;28;102582;-83
2021/08/16 05:46:13;;;;;;;;;6.00;5.33;;;;;26.32;51.03;97800.94;4920484;28;103181;-83
2021/08/16 05:48:40;;;;;;;;;4.00;4.00;;;;;26.32;51.11;97805.69;4918905;28;104639;-83
2021/08/16 05:51:07;;;;;;;;;6.67;6.67;;;;;26.32;50.99;97812.03;4898349;28;103963;-83
2021/08/16 05:53:35;;;;;;;;;5.67;5.00;;;;;26.32;51.05;97816.75;4899559;28;102419;-83
2021/08/16 05:56:02;;;;;;;;;5.00;4.33;;;;;26.30;50.98;97813.53;4913299;28;102582;-83
2021/08/16 05:58:29;;;;;;;;;6.00;5.33;;;;;26.31;51.10;97815.13;4902105;28;104100;-84
2021/08/16 06:00:57;;;;;;;;;6.00;5.00;;;;;26.29;51.39;97811.88;4908719;28;102425;-84
2021/08/16 06:03:24;;;;;;;;;6.00;6.00;;;;;26.29;51.01;97817.41;4910210;28;102489;-84
2021/08/16 06:05:51;;;;;;;;;5.67;5.67;;;;;26.26;51.17;97813.31;4898036;28;102395;-84
2021/08/16 06:08:18;;;;;;;;;6.00;6.00;;;;;26.32;51.15;97827.84;4896959;28;104081;-84
2021/08/16 06:10:45;;;;;;;;;6.00;5.00;;;;;26.30;51.21;97830.16;4909623;28;102413;-84
2021/08/16 06:13:12;;;;;;;;;4.67;4.67;;;;;26.30;51.11;97830.94;4914649;28;103204;-84
2021/08/16 06:15:39;;;;;;;;;5.67;5.67;;;;;26.32;51.12;97841.72;4901844;28;102161;-84
2021/08/16 06:18:07;;;;;;;;;6.67;5.33;;;;;26.31;51.03;97854.75;4906054;28;104069;-84
2021/08/16 06:20:34;;;;;;;;;6.67;6.00;;;;;26.31;51.08;97846.44;4913300;28;103179;-84
2021/08/16 06:23:04;;;;;;;;;6.67;6.33;;;;;26.29;51.26;97854.28;4917631;28;102694;-84
2021/08/16 06:25:32;;;;;;;;;4.67;4.00;;;;;26.29;51.14;97853.47;4903032;28;102731;-84
2021/08/16 06:27:59;;;;;;;;;6.33;6.00;;;;;26.30;51.29;97852.31;4897718;28;104260;-84
2021/08/16 06:30:27;;;;;;;;;5.00;5.00;;;;;26.30;51.37;97855.88;4902861;28;102479;-84
2021/08/16 06:32:54;;;;;;;;;6.33;6.33;;;;;26.29;51.26;97854.28;4903094;28;102734;-84
2021/08/16 06:35:22;;;;;;;;;4.67;4.00;;;;;26.31;51.36;97862.25;4902506;28;102267;-84
2021/08/16 06:37:49;;;;;;;;;5.00;5.00;;;;;26.30;51.45;97855.88;4910160;28;103222;-84
2021/08/16 06:40:17;;;;;;;;;4.67;4.00;;;;;26.32;51.57;97863.88;4907270;28;102627;-83
2021/08/16 06:42:44;;;;;;;;;5.33;5.33;;;;;26.32;51.41;97861.94;4904214;28;104213;-83
2021/08/16 06:45:12;;;;;;;;;6.33;6.00;;;;;26.31;51.41;97860.31;4923590;28;102221;-83
2021/08/16 06:47:39;;;;;;;;;5.33;4.33;;;;;26.32;51.39;97856.41;4925071;28;104155;-83
2021/08/16 06:50:09;;;;;;;;;8.00;7.33;;;;;26.31;51.40;97860.31;4923299;28;103513;-83
2021/08/16 06:52:36;;;;;;;;;6.00;6.00;;;;;26.33;51.47;97860.00;4921198;28;102640;-83
2021/08/16 06:55:04;;;;;;;;;5.33;5.33;;;;;26.33;51.46;97860.81;4913238;28;102237;-83
2021/08/16 06:57:33;;;;;;;;;5.33;5.00;;;;;26.33;51.58;97857.22;4903903;28;103878;-83
2021/08/16 07:00:05;;;;;;;;;5.00;5.00;;;;;26.33;51.48;97854.44;4924785;28;102305;-83
2021/08/16 07:02:33;;;;;;;;;4.00;4.00;;;;;26.32;51.57;97853.63;4900623;28;102749;-83
2021/08/16 07:05:05;;;;;;;;;5.00;5.00;;;;;26.34;51.57;97842.22;4903526;28;103784;-83
2021/08/16 07:07:33;;;;;;;;;8.00;8.00;;;;;26.34;51.65;97839.44;4908446;28;104093;-83
2021/08/16 07:10:06;;;;;;;;;5.00;4.00;;;;;26.33;51.41;97852.50;4902340;28;102628;-83
2021/08/16 07:12:34;;;;;;;;;4.00;4.00;;;;;26.35;51.75;97846.59;4916026;28;102778;-83
2021/08/16 07:15:02;;;;;;;;;5.00;5.00;;;;;26.33;51.83;97844.19;4916241;28;102475;-83
2021/08/16 07:17:29;;;;;;;;;6.33;4.33;;;;;26.35;51.78;97832.75;4907129;28;104090;-83
2021/08/16 07:19:56;;;;;;;;;4.67;4.67;;;;;26.35;51.92;97841.06;4905599;28;108987;-83
2021/08/16 07:22:23;;;;;;;;;6.00;5.00;;;;;26.33;51.90;97838.63;4910059;28;102527;-83
2021/08/16 07:24:50;;;;;;;;;6.00;6.00;;;;;26.35;52.12;97841.06;4885361;28;102745;-83
2021/08/16 07:27:17;;;;;;;;;7.00;5.33;;;;;26.36;51.94;97834.38;4913027;28;104216;-83
2021/08/16 07:29:44;;;;;;;;;6.33;6.33;;;;;26.36;52.12;97840.75;4911517;28;102260;-83
2021/08/16 07:32:11;;;;;;;;;6.00;5.67;;;;;26.36;52.27;97839.94;4916622;28;102217;-83
2021/08/16 07:34:39;;;;;;;;;4.33;4.33;;;;;26.36;52.20;97846.28;4924962;28;102142;-83
2021/08/16 07:37:08;;;;;;;;;6.00;6.00;;;;;26.37;52.29;97841.56;4900202;28;104011;-83
2021/08/16 07:39:35;;;;;;;;;7.00;5.00;;;;;26.37;52.25;97844.34;4903083;28;102328;-83
2021/08/16 07:42:02;;;;;;;;;5.33;5.33;;;;;26.38;52.34;97854.31;4932426;28;103152;-83
2021/08/16 07:44:29;;;;;;;;;6.00;6.00;;;;;26.38;52.52;97862.63;4912634;28;102616;-83
2021/08/16 07:46:59;;;;;;;;;4.67;4.67;;;;;26.38;52.29;97852.34;4903582;28;104543;-83
2021/08/16 07:49:30;;;;;;;;;5.00;5.00;;;;;26.38;52.47;97855.13;4912951;28;102267;-83
2021/08/16 07:51:58;;;;;;;;;7.00;7.00;;;;;26.38;52.40;97854.31;4916838;28;104130;-84
2021/08/16 07:54:25;;;;;;;;;8.00;7.33;;;;;26.38;52.37;97852.34;4913240;28;102994;-84
2021/08/16 07:56:52;;;;;;;;;5.00;5.00;;;;;26.33;52.44;97846.94;4906288;28;104097;-84
2021/08/16 07:59:19;;;;;;;;;7.33;6.33;;;;;26.40;52.36;97854.78;4907562;28;104474;-83
2021/08/16 08:01:47;;;;;;;;;5.00;4.67;;;;;26.41;52.49;97870.28;4908382;28;102592;-83
2021/08/16 08:04:15;;;;;;;;;5.33;5.00;;;;;26.42;52.50;97871.91;4913107;28;102316;-83
2021/08/16 08:06:42;;;;;;;;;5.67;5.33;;;;;26.42;52.36;97869.97;4912558;28;103118;-83
2021/08/16 08:09:09;;;;;;;;;6.00;4.67;;;;;26.42;52.24;97858.88;4912179;28;102146;-83
2021/08/16 08:11:37;;;;;;;;;6.00;5.33;;;;;26.43;52.28;97860.50;4909003;28;103082;-83
2021/08/16 08:14:04;;;;;;;;;7.00;6.00;;;;;26.42;52.22;97852.50;4906947;28;105079;-83
2021/08/16 08:16:31;;;;;;;;;6.33;6.00;;;;;26.44;52.05;97853.81;4912210;28;103787;-83
2021/08/16 08:18:58;;;;;;;;;5.00;5.00;;;;;26.45;52.27;97849.09;4916897;28;103537;-83
2021/08/16 08:21:26;;;;;;;;;5.67;5.67;;;;;26.44;52.21;97848.28;4904867;28;102130;-83
2021/08/16 08:23:53;;;;;;;;;5.33;5.33;;;;;26.45;52.33;97861.00;4907498;28;102462;-83
2021/08/16 08:26:20;;;;;;;;;6.33;6.33;;;;;26.47;52.20;97860.69;4907419;28;105310;-83
2021/08/16 08:28:47;;;;;;;;;5.00;4.67;;;;;26.46;52.10;97873.72;4913326;28;102660;-83
2021/08/16 08:31:14;;;;;;;;;6.00;6.00;;;;;26.48;52.23;97865.06;4927886;28;102225;-83
2021/08/16 08:33:41;;;;;;;;;4.67;4.67;;;;;26.48;52.25;97863.13;4937670;28;101888;-83
2021/08/16 08:36:08;;;;;;;;;7.33;7.00;;;;;26.48;52.35;97865.88;4920657;28;103930;-83
2021/08/16 08:38:36;;;;;;;;;5.00;5.00;;;;;26.48;52.27;97865.88;4922400;28;102155;-83
2021/08/16 08:41:03;;;;;;;;;5.00;5.00;;;;;26.49;52.18;97870.31;4926553;28;102161;-83
2021/08/16 08:43:30;;;;;;;;;5.00;5.00;;;;;26.50;52.28;97868.34;4929785;28;103344;-83
2021/08/16 08:45:58;;;;;;;;;5.00;5.00;;;;;26.50;52.21;97863.63;4937619;28;103398;-83
2021/08/16 08:48:29;;;;;;;;;3.33;3.00;;;;;26.51;52.13;97868.03;4923400;28;102271;-83
2021/08/16 08:50:59;;;;;;;;;6.33;6.00;;;;;26.53;52.05;97874.06;4931020;28;101890;-83
2021/08/16 08:53:26;;;;;;;;;4.00;4.00;;;;;26.52;52.45;97872.41;4926032;28;101994;-83
2021/08/16 08:55:53;;;;;;;;;6.00;5.00;;;;;26.53;52.03;97862.97;4904000;28;103382;-83
2021/08/16 08:58:22;;;;;;;;;5.00;4.67;;;;;26.54;52.19;97870.16;4913851;28;101802;-83
2021/08/16 09:00:49;;;;;;;;;5.00;5.00;;;;;26.53;52.30;97868.50;4932574;28;102192;-83
2021/08/16 09:03:16;;;;;;;;;7.67;6.33;;;;;26.55;51.97;97863.47;4929002;28;102311;-83
2021/08/16 09:05:52;;;;;;;;;7.00;5.33;;;;;26.55;52.28;97860.72;4914382;28;103405;-83
2021/08/16 09:08:32;;;;;;;;;5.67;5.00;;;;;26.56;51.93;97861.53;4939950;28;102144;-83
2021/08/16 09:11:13;;;;;;;;;4.33;4.00;;;;;26.57;52.18;97857.59;4931855;28;102089;-83
2021/08/16 09:13:59;;;;;;;;;6.00;4.67;;;;;26.51;52.19;97848.63;4928583;28;101850;-83
2021/08/16 09:16:27;;;;;;;;;6.00;5.00;;;;;26.57;52.23;97858.41;4846745;28;108042;-83
2021/08/16 09:18:55;;;;;;;;;5.00;4.67;;;;;26.59;51.92;97855.31;4917104;28;102968;-83
2021/08/16 09:21:26;;;;;;;;;4.33;4.33;;;;;26.59;52.04;97861.69;4915961;28;102953;-83
2021/08/16 09:23:55;;;;;;;;;6.00;6.00;;;;;26.59;52.22;97853.38;4922305;28;102130;-83
2021/08/16 09:26:24;;;;;;;;;4.67;4.67;;;;;26.61;52.04;97861.38;4910723;28;103367;-83
2021/08/16 09:29:16;;;;;;;;;5.67;5.67;;;;;26.61;52.06;97853.84;4916076;28;102245;-83
2021/08/16 09:32:03;;;;;;;;;4.00;3.33;;;;;26.62;52.19;97857.44;4916296;28;102272;-83
2021/08/16 09:34:34;;;;;;;;;6.00;6.00;;;;;26.62;52.12;97854.66;4868371;28;102107;-83
2021/08/16 09:37:14;;;;;;;;;5.00;5.00;;;;;26.62;52.29;97858.25;4908891;28;104359;-83
2021/08/16 09:39:43;;;;;;;;;4.67;4.67;;;;;26.62;52.16;97861.03;4914390;28;102217;-83
2021/08/16 09:42:10;;;;;;;;;6.00;6.00;;;;;26.64;52.28;97867.09;4921670;28;102216;-83
2021/08/16 09:44:47;;;;;;;;;5.00;4.67;;;;;26.64;52.37;97867.09;4920363;28;102119;-83
2021/08/16 09:47:14;;;;;;;;;7.00;6.00;;;;;26.63;52.37;97865.44;4914919;28;108188;-83
2021/08/16 09:49:41;;;;;;;;;4.33;3.67;;;;;26.62;52.21;97855.47;4918048;28;102006;-83
2021/08/16 09:52:10;;;;;;;;;4.00;4.00;;;;;26.64;52.38;97853.22;4919108;28;101871;-83
2021/08/16 09:54:39;;;;;;;;;4.67;3.33;;;;;26.66;52.44;97860.41;4917553;28;102386;-83
2021/08/16 09:57:08;;;;;;;;;4.00;4.00;;;;;26.66;52.46;97854.84;4913111;28;103344;-83
2021/08/16 09:59:36;;;;;;;;;6.00;4.67;;;;;26.67;52.28;97862.00;4917141;28;101885;-83
2021/08/16 10:02:04;;;;;;;;;7.00;5.00;;;;;26.69;52.16;97854.19;4917538;28;103222;-83
2021/08/16 10:04:32;;;;;;;;;5.00;4.33;;;;;26.68;52.33;97835.91;4917517;28;102326;-83
2021/08/16 10:07:02;;;;;;;;;6.00;5.00;;;;;26.68;52.31;97838.69;4914221;28;108049;-83
2021/08/16 10:09:47;;;;;;;;;5.67;5.00;;;;;26.70;52.42;97850.28;4916347;28;102104;-83
2021/08/16 10:12:15;;;;;;;;;4.67;4.00;;;;;26.70;52.23;97842.78;4919033;28;102344;-83
2021/08/16 10:14:43;;;;;;;;;5.00;5.00;;;;;26.72;52.31;97842.44;4922278;28;101907;-83
2021/08/16 10:17:22;;;;;;;;;5.33;5.00;;;;;26.72;52.48;97842.44;4910301;28;107937;-83
2021/08/16 10:19:50;;;;;;;;;4.00;4.00;;;;;26.73;52.13;97844.09;4925827;28;102589;-83
2021/08/16 10:22:17;;;;;;;;;5.33;5.00;;;;;26.74;52.33;97845.72;4932584;28;102344;-83
2021/08/16 10:24:45;;;;;;;;;5.00;4.00;;;;;26.75;52.13;97841.81;4918761;28;102051;-83
2021/08/16 10:27:12;;;;;;;;;5.00;4.33;;;;;26.75;52.19;97839.03;4930328;28;103376;-83
2021/08/16 10:29:40;;;;;;;;;4.67;4.67;;;;;26.76;52.22;97843.44;4931730;28;102026;-83
2021/08/16 10:32:18;;;;;;;;;5.67;4.33;;;;;26.77;52.10;97833.97;4923426;28;101797;-83
2021/08/16 10:34:45;;;;;;;;;4.33;4.33;;;;;26.77;52.19;97833.97;4942277;28;101820;-83
2021/08/16 10:37:15;;;;;;;;;5.00;5.00;;;;;26.77;52.36;97831.19;4935361;28;108187;-83
2021/08/16 10:39:44;;;;;;;;;5.33;4.00;;;;;26.78;52.25;97830.06;4928962;28;102292;-83
2021/08/16 10:42:18;;;;;;;;;5.33;4.67;;;;;26.78;52.34;97827.28;4937924;28;102119;-83
2021/08/16 10:44:49;;;;;;;;;5.33;4.67;;;;;26.78;52.19;97824.53;4930687;28;101850;-83
2021/08/16 10:47:27;;;;;;;;;5.33;4.00;;;;;26.79;52.21;97823.38;4929940;28;108138;-83
2021/08/16 10:50:09;;;;;;;;;5.00;5.00;;;;;26.81;51.90;97818.31;4921469;28;102098;-83
2021/08/16 10:52:38;;;;;;;;;4.00;4.00;;;;;26.80;52.15;97817.50;4923265;28;102123;-83
2021/08/16 10:55:12;;;;;;;;;5.33;5.00;;;;;26.75;52.18;97801.00;4932783;28;103753;-83
2021/08/16 10:57:40;;;;;;;;;4.67;4.67;;;;;26.83;51.95;97810.50;4906370;28;103405;-83
2021/08/16 11:00:08;;;;;;;;;5.33;5.33;;;;;26.82;51.96;97811.63;4914867;28;102379;-83
2021/08/16 11:02:40;;;;;;;;;4.00;3.67;;;;;26.83;52.06;97811.31;4915960;28;102683;-83
2021/08/16 11:05:09;;;;;;;;;4.00;3.67;;;;;26.84;52.00;97814.88;4919738;28;102475;-83
2021/08/16 11:07:36;;;;;;;;;5.33;3.33;;;;;26.81;52.12;97796.94;4906473;28;104060;-83
2021/08/16 11:10:09;;;;;;;;;5.00;5.00;;;;;26.86;52.02;97812.63;4909030;28;102621;-83
2021/08/16 11:12:42;;;;;;;;;4.00;4.00;;;;;26.86;51.93;97818.19;4916642;28;102618;-83
2021/08/16 11:15:15;;;;;;;;;5.00;5.00;;;;;26.88;52.02;97816.72;4919579;28;102694;-83
2021/08/16 11:17:43;;;;;;;;;5.33;4.67;;;;;26.88;51.80;97813.13;4909817;28;104026;-83
2021/08/16 11:20:15;;;;;;;;;6.33;4.67;;;;;26.89;52.00;97815.56;4919125;28;104232;-83
2021/08/16 11:22:54;;;;;;;;;4.67;4.67;;;;;26.89;52.00;97795.31;4915095;28;102445;-83
2021/08/16 11:25:21;;;;;;;;;4.33;4.33;;;;;26.88;51.79;97790.94;4910769;28;102357;-83
2021/08/16 11:27:49;;;;;;;;;4.00;4.00;;;;;26.90;51.98;97800.56;4917766;28;104193;-83
2021/08/16 11:30:17;;;;;;;;;5.00;4.33;;;;;26.90;51.86;97788.66;4900067;28;103048;-83